createdAt,value
2019-03-05T00:01:14.337Z,0.90
2019-03-05T00:03:55.081Z,0.77
2019-03-05T00:06:35.446Z,1.37
2019-03-05T00:09:21.071Z,0.97
2019-03-05T00:12:02.390Z,1.20
2019-03-05T00:14:43.158Z,0.97
2019-03-05T00:17:23.941Z,1.23
2019-03-05T00:20:04.473Z,1.40
2019-03-05T00:22:45.207Z,1.30
2019-03-05T00:25:25.953Z,1.27
2019-03-05T00:28:06.597Z,1.50
2019-03-05T00:30:47.485Z,1.20
2019-03-05T00:33:28.282Z,1.60
2019-03-05T00:36:09.339Z,1.27
2019-03-05T00:38:49.732Z,1.20
2019-03-05T00:41:30.507Z,1.10
2019-03-05T00:44:11.177Z,0.90
2019-03-05T00:46:51.971Z,0.70
2019-03-05T00:49:32.603Z,0.80
2019-03-05T00:54:55.599Z,0.53
2019-03-05T00:57:36.227Z,0.70
2019-03-05T01:00:17.492Z,0.30
2019-03-05T01:02:58.004Z,0.40
2019-03-05T01:05:38.410Z,0.50
2019-03-05T01:08:19.688Z,0.60
2019-03-05T01:11:00.655Z,0.30
2019-03-05T01:13:41.798Z,0.40
2019-03-05T01:16:27.054Z,0.60
2019-03-05T01:19:08.557Z,0.30
2019-03-05T01:21:48.914Z,0.30
2019-03-05T01:24:29.726Z,0.50
2019-03-05T01:29:56.702Z,0.47
2019-03-05T01:32:46.231Z,0.63
2019-03-05T01:35:40.589Z,0.30
2019-03-05T01:41:04.303Z,0.30
2019-03-05T01:43:44.682Z,0.90
2019-03-05T01:46:25.811Z,0.63
2019-03-05T01:49:07.171Z,0.50
2019-03-05T01:51:51.015Z,0.50
2019-03-05T01:54:32.371Z,0.60
2019-03-05T01:57:13.357Z,0.60
2019-03-05T01:59:54.053Z,0.70
2019-03-05T02:02:34.751Z,0.40
2019-03-05T02:05:15.361Z,0.80
2019-03-05T02:07:56.141Z,0.90
2019-03-05T02:10:36.822Z,0.63
2019-03-05T02:13:17.749Z,0.50
2019-03-05T02:15:58.149Z,0.60
2019-03-05T02:18:39.254Z,0.50
2019-03-05T02:21:20.094Z,0.37
2019-03-05T02:24:00.685Z,0.87
2019-03-05T02:26:41.590Z,0.80
2019-03-05T02:29:22.263Z,0.63
2019-03-05T02:32:03.287Z,1.23
2019-03-05T02:34:44.292Z,0.90
2019-03-05T02:37:25.068Z,0.53
2019-03-05T02:40:06.315Z,0.60
2019-03-05T02:42:50.266Z,1.00
2019-03-05T02:45:31.798Z,0.77
2019-03-05T02:48:12.890Z,0.80
2019-03-05T02:50:53.515Z,0.60
2019-03-05T02:53:34.730Z,0.90
2019-03-05T02:56:15.465Z,0.60
2019-03-05T02:58:56.701Z,0.83
2019-03-05T03:01:56.416Z,0.67
2019-03-05T03:04:41.150Z,0.80
2019-03-05T03:07:22.616Z,0.97
2019-03-05T03:10:03.262Z,0.70
2019-03-05T03:12:43.906Z,1.17
2019-03-05T03:15:24.647Z,0.70
2019-03-05T03:18:05.577Z,0.83
2019-03-05T03:20:46.261Z,0.97
2019-03-05T03:23:27.438Z,1.00
2019-03-05T03:26:08.061Z,0.93
2019-03-05T03:28:48.700Z,0.77
2019-03-05T03:31:29.719Z,0.50
2019-03-05T03:34:10.520Z,0.80
2019-03-05T03:36:51.255Z,0.63
2019-03-05T03:39:31.997Z,1.10
2019-03-05T03:42:12.545Z,0.77
2019-03-05T03:44:53.556Z,0.70
2019-03-05T03:47:34.452Z,0.37
2019-03-05T03:50:15.135Z,0.70
2019-03-05T03:52:55.834Z,0.77
2019-03-05T03:55:36.954Z,1.07
2019-03-05T03:58:17.526Z,0.73
2019-03-05T04:00:58.486Z,0.80
2019-03-05T04:03:38.994Z,0.53
2019-03-05T04:06:20.018Z,0.50
2019-03-05T04:09:00.799Z,0.93
2019-03-05T04:11:41.450Z,0.60
2019-03-05T04:14:22.108Z,0.77
2019-03-05T04:17:02.895Z,0.50
2019-03-05T04:19:43.574Z,0.80
2019-03-05T04:22:24.048Z,0.70
2019-03-05T04:25:04.622Z,1.03
2019-03-05T04:27:45.510Z,0.80
2019-03-05T04:30:26.786Z,0.40
2019-03-05T04:33:07.554Z,0.67
2019-03-05T04:35:48.461Z,0.57
2019-03-05T04:38:29.311Z,1.50
2019-03-05T04:41:09.990Z,0.43
2019-03-05T04:43:50.689Z,0.60
2019-03-05T04:49:13.902Z,0.80
2019-03-05T04:51:58.532Z,0.60
2019-03-05T04:54:37.682Z,0.50
2019-03-05T04:57:25.959Z,0.60
2019-03-05T05:00:14.577Z,0.60
2019-03-05T05:03:02.702Z,0.80
2019-03-05T05:05:50.990Z,0.70
2019-03-05T05:11:26.222Z,0.70
2019-03-05T05:14:07.049Z,0.90
2019-03-05T05:16:47.743Z,1.37
2019-03-05T05:19:28.436Z,0.70
2019-03-05T05:22:08.948Z,0.80
2019-03-05T05:24:49.517Z,1.00
2019-03-05T05:27:30.235Z,1.50
2019-03-05T05:30:10.881Z,0.70
2019-03-05T05:32:51.562Z,0.97
2019-03-05T05:35:32.621Z,0.90
2019-03-05T05:38:13.402Z,0.87
2019-03-05T05:40:54.105Z,0.77
2019-03-05T05:43:34.865Z,0.87
2019-03-05T05:46:15.726Z,0.80
2019-03-05T05:48:56.382Z,0.90
2019-03-05T05:51:37.530Z,1.10
2019-03-05T05:54:18.514Z,1.00
2019-03-05T05:56:59.255Z,1.17
2019-03-05T05:59:40.550Z,1.20
2019-03-05T06:02:21.170Z,1.20
2019-03-05T06:05:02.965Z,1.00
2019-03-05T06:07:43.936Z,0.87
2019-03-05T06:10:24.343Z,0.90
2019-03-05T06:13:05.373Z,1.03
2019-03-05T06:15:45.922Z,0.93
2019-03-05T06:18:26.927Z,0.73
2019-03-05T06:21:08.300Z,0.70
2019-03-05T06:23:48.950Z,0.93
2019-03-05T06:26:29.610Z,0.90
2019-03-05T06:29:10.481Z,0.93
2019-03-05T06:31:51.318Z,1.20
2019-03-05T06:34:32.173Z,0.90
2019-03-05T06:37:13.338Z,1.00
2019-03-05T06:39:53.721Z,1.00
2019-03-05T06:42:34.545Z,1.03
2019-03-05T06:45:15.158Z,1.20
2019-03-05T06:47:56.102Z,0.90
2019-03-05T06:50:37.034Z,1.23
2019-03-05T06:53:18.097Z,1.10
2019-03-05T06:55:58.947Z,0.97
2019-03-05T06:58:39.734Z,1.67
2019-03-05T07:01:20.255Z,1.40
2019-03-05T07:04:00.935Z,1.30
2019-03-05T07:06:41.990Z,1.20
2019-03-05T07:09:22.929Z,1.10
2019-03-05T07:12:04.202Z,1.47
2019-03-05T07:14:44.606Z,1.00
2019-03-05T07:17:25.373Z,1.40
2019-03-05T07:20:06.093Z,1.00
2019-03-05T07:22:46.885Z,1.00
2019-03-05T07:25:27.755Z,1.10
2019-03-05T07:28:08.351Z,1.20
2019-03-05T07:30:49.411Z,0.80
2019-03-05T07:33:29.762Z,1.00
2019-03-05T07:36:10.481Z,1.10
2019-03-05T07:38:51.046Z,1.10
2019-03-05T07:41:31.862Z,1.20
2019-03-05T07:44:12.324Z,1.20
2019-03-05T07:46:53.002Z,1.00
2019-03-05T07:49:43.373Z,0.87
2019-03-05T07:52:16.295Z,0.67
2019-03-05T07:54:56.898Z,0.70
2019-03-05T07:57:37.465Z,1.20
2019-03-05T08:00:18.318Z,1.10
2019-03-05T08:02:59.030Z,1.30
2019-03-05T08:05:39.726Z,0.77
2019-03-05T08:08:26.533Z,1.10
2019-03-05T08:13:45.766Z,0.70
2019-03-05T08:16:32.733Z,0.93
2019-03-05T08:19:13.976Z,0.80
2019-03-05T08:21:54.634Z,1.13
2019-03-05T08:24:35.474Z,0.70
2019-03-05T08:27:16.155Z,0.60
2019-03-05T08:29:56.898Z,0.90
2019-03-05T08:32:37.210Z,0.67
2019-03-05T08:35:18.059Z,0.77
2019-03-05T08:37:58.389Z,0.70
2019-03-05T08:40:38.947Z,0.87
2019-03-05T08:43:19.857Z,0.67
2019-03-05T08:48:42.707Z,0.90
2019-03-05T08:51:23.739Z,0.57
2019-03-05T08:54:04.123Z,1.03
2019-03-05T08:56:44.764Z,0.60
2019-03-05T08:59:25.459Z,0.70
2019-03-05T09:02:05.974Z,0.80
2019-03-05T09:04:46.907Z,0.70
2019-03-05T09:07:27.554Z,0.47
2019-03-05T09:10:08.462Z,0.50
2019-03-05T09:12:49.145Z,0.63
2019-03-05T09:15:29.767Z,1.47
2019-03-05T09:18:10.388Z,0.53
2019-03-05T09:20:51.062Z,0.60
2019-03-05T09:23:31.766Z,0.60
2019-03-05T09:26:14.070Z,0.70
2019-03-05T09:28:53.172Z,0.80
2019-03-05T09:31:41.433Z,0.53
2019-03-05T09:34:29.545Z,0.43
2019-03-05T09:37:17.573Z,0.60
2019-03-05T09:40:07.231Z,0.70
2019-03-05T09:42:55.529Z,0.50
2019-03-05T09:45:43.562Z,0.70
2019-03-05T09:48:31.682Z,0.63
2019-03-05T09:51:19.784Z,0.90
2019-03-05T09:54:07.895Z,0.50
2019-03-05T09:56:56.002Z,0.50
2019-03-05T09:59:44.037Z,0.30
2019-03-05T10:02:32.369Z,0.67
2019-03-05T10:05:20.501Z,0.80
2019-03-05T10:08:08.609Z,0.60
2019-03-05T10:10:57.050Z,0.90
2019-03-05T10:13:45.146Z,0.90
2019-03-05T10:16:33.198Z,1.50
2019-03-05T10:19:21.318Z,0.57
2019-03-05T10:22:09.421Z,0.57
2019-03-05T10:25:05.632Z,0.50
2019-03-05T10:27:47.770Z,0.73
2019-03-05T10:30:36.546Z,0.80
2019-03-05T10:33:24.574Z,0.70
2019-03-05T10:36:12.694Z,0.30
2019-03-05T10:39:01.046Z,0.30
2019-03-05T10:41:49.161Z,0.50
2019-03-05T10:44:37.518Z,0.50
2019-03-05T10:47:25.866Z,0.50
2019-03-05T10:50:15.854Z,0.53
2019-03-05T10:53:04.058Z,0.80
2019-03-05T10:55:52.566Z,0.57
2019-03-05T10:58:40.674Z,0.60
2019-03-05T11:01:29.015Z,0.53
2019-03-05T11:04:17.120Z,0.70
2019-03-05T11:07:05.162Z,0.40
2019-03-05T11:09:53.363Z,0.67
2019-03-05T11:12:34.094Z,0.50
2019-03-05T11:15:14.726Z,0.60
2019-03-05T11:17:43.698Z,0.70
2019-03-05T11:20:31.810Z,0.42
2019-03-05T11:23:19.843Z,0.40
2019-03-05T11:26:07.969Z,0.55
2019-03-05T11:28:56.090Z,0.20
2019-03-05T11:31:44.226Z,0.30
2019-03-05T11:34:32.702Z,0.60
2019-03-05T11:37:20.837Z,0.30
2019-03-05T11:40:20.541Z,0.43
2019-03-05T11:43:24.653Z,0.60
2019-03-05T11:46:31.974Z,0.60
2019-03-05T11:49:20.004Z,0.33
2019-03-05T11:52:08.106Z,0.40
2019-03-05T11:54:56.502Z,0.50
2019-03-05T11:57:44.667Z,0.50
2019-03-05T12:00:51.946Z,0.50
2019-03-05T12:03:40.122Z,0.80
2019-03-05T12:06:28.153Z,0.63
2019-03-05T12:09:16.179Z,0.60
2019-03-05T12:11:57.390Z,0.37
2019-03-05T12:14:38.050Z,0.50
2019-03-05T12:17:19.038Z,0.60
2019-03-05T12:19:59.925Z,0.30
2019-03-05T12:22:40.908Z,0.67
2019-03-05T12:25:23.782Z,0.30
2019-03-05T12:28:10.204Z,0.33
2019-03-05T12:30:47.164Z,0.83
2019-03-05T12:33:27.736Z,0.30
2019-03-05T12:36:08.271Z,0.63
2019-03-05T12:38:49.138Z,0.63
2019-03-05T12:41:30.397Z,0.50
2019-03-05T12:44:10.928Z,0.77
2019-03-05T12:46:51.409Z,0.40
2019-03-05T12:49:32.219Z,0.67
2019-03-05T12:52:15.827Z,0.30
2019-03-05T12:54:56.979Z,0.50
2019-03-05T12:57:26.041Z,0.73
2019-03-05T13:03:24.385Z,0.43
2019-03-05T13:06:12.729Z,0.60
2019-03-05T13:08:42.031Z,0.50
2019-03-05T13:11:22.931Z,0.67
2019-03-05T13:14:11.289Z,0.53
2019-03-05T13:16:46.031Z,0.60
2019-03-05T13:19:26.807Z,0.40
2019-03-05T13:22:07.814Z,0.70
2019-03-05T13:24:50.257Z,0.50
2019-03-05T13:27:30.274Z,0.57
2019-03-05T13:30:11.066Z,0.87
2019-03-05T13:32:54.248Z,0.43
2019-03-05T13:35:34.533Z,0.80
2019-03-05T13:38:15.098Z,0.57
2019-03-05T13:40:56.039Z,0.40
2019-03-05T13:43:36.624Z,0.50
2019-03-05T13:46:17.226Z,0.63
2019-03-05T13:48:58.864Z,0.80
2019-03-05T13:51:39.578Z,0.50
2019-03-05T13:54:20.481Z,0.37
2019-03-05T13:57:00.961Z,0.90
2019-03-05T13:59:41.714Z,0.77
2019-03-05T14:02:22.442Z,0.70
2019-03-05T14:05:03.234Z,1.13
2019-03-05T14:07:43.790Z,0.50
2019-03-05T14:10:26.210Z,1.00
2019-03-05T14:13:07.153Z,0.50
2019-03-05T14:15:47.792Z,0.57
2019-03-05T14:18:31.076Z,0.77
2019-03-05T14:21:11.435Z,0.53
2019-03-05T14:23:52.234Z,0.53
2019-03-05T14:29:14.924Z,0.60
2019-03-05T14:31:55.599Z,0.80
2019-03-05T14:34:36.192Z,0.67
2019-03-05T14:37:18.044Z,0.63
2019-03-05T14:40:22.197Z,0.73
2019-03-05T14:42:41.699Z,1.00
2019-03-05T14:45:22.704Z,0.57
2019-03-05T14:48:04.334Z,0.60
2019-03-05T14:50:45.086Z,0.57
2019-03-05T14:53:25.751Z,0.70
2019-03-05T14:56:06.335Z,1.23
2019-03-05T14:58:46.871Z,0.80
2019-03-05T15:01:27.591Z,0.60
2019-03-05T15:04:08.464Z,1.17
2019-03-05T15:06:49.997Z,0.80
2019-03-05T15:09:30.435Z,1.20
2019-03-05T15:12:11.101Z,0.70
2019-03-05T15:14:51.701Z,1.00
2019-03-05T15:17:32.959Z,1.10
2019-03-05T15:20:13.623Z,1.40
2019-03-05T15:22:54.825Z,1.13
2019-03-05T15:25:34.286Z,1.10
2019-03-05T15:28:22.316Z,1.10
2019-03-05T15:31:10.450Z,0.87
2019-03-05T15:33:58.555Z,2.87
2019-03-05T15:36:46.897Z,0.90
2019-03-05T15:39:34.973Z,1.33
2019-03-05T15:42:23.011Z,1.17
2019-03-05T15:45:12.648Z,1.60
2019-03-05T15:48:00.730Z,1.37
2019-03-05T15:50:48.863Z,0.70
2019-03-05T15:53:36.974Z,1.20
2019-03-05T15:56:25.121Z,1.30
2019-03-05T15:59:13.225Z,1.00
2019-03-05T16:02:01.349Z,1.10
2019-03-05T16:04:49.642Z,1.03
2019-03-05T16:07:37.670Z,0.80
2019-03-05T16:10:26.063Z,1.30
2019-03-05T16:13:07.206Z,1.80
2019-03-05T16:15:47.881Z,1.00
2019-03-05T16:18:28.753Z,1.00
2019-03-05T16:21:09.951Z,1.30
2019-03-05T16:23:50.770Z,1.20
2019-03-05T16:26:31.581Z,1.17
2019-03-05T16:29:16.173Z,1.13
2019-03-05T16:32:14.226Z,1.10
2019-03-05T16:35:13.690Z,1.27
2019-03-05T16:38:15.004Z,1.37
2019-03-05T16:44:26.179Z,2.50
2019-03-05T16:47:22.339Z,2.20
2019-03-05T16:50:29.517Z,1.63
2019-03-05T16:53:26.396Z,3.60
2019-03-05T16:56:33.950Z,2.40
2019-03-05T16:59:41.109Z,1.87
2019-03-05T17:02:44.892Z,2.13
2019-03-05T17:05:52.469Z,2.67
2019-03-05T17:08:48.795Z,1.50
2019-03-05T17:11:31.079Z,0.60
2019-03-05T17:16:58.486Z,0.60
2019-03-05T17:22:30.895Z,0.90
2019-03-05T17:25:12.133Z,0.90
2019-03-05T17:27:53.358Z,1.30
2019-03-05T17:30:33.866Z,1.43
2019-03-05T17:33:14.598Z,1.00
2019-03-05T17:35:55.451Z,1.20
2019-03-05T17:38:36.384Z,0.70
2019-03-05T17:41:16.993Z,0.53
2019-03-05T17:43:57.882Z,0.70
2019-03-05T17:46:38.440Z,0.80
2019-03-05T17:49:19.333Z,0.63
2019-03-05T17:51:59.962Z,1.10
2019-03-05T17:54:40.535Z,0.90
2019-03-05T17:57:21.318Z,1.10
2019-03-05T18:00:02.442Z,0.77
2019-03-05T18:02:43.666Z,0.90
2019-03-05T18:05:24.088Z,0.80
2019-03-05T18:08:06.226Z,0.70
2019-03-05T18:16:14.711Z,1.00
2019-03-05T18:21:41.584Z,1.10
2019-03-05T18:24:22.375Z,0.93
2019-03-05T18:27:02.898Z,1.43
2019-03-05T18:29:44.493Z,0.57
2019-03-05T18:32:24.994Z,1.40
2019-03-05T18:35:05.945Z,1.10
2019-03-05T18:37:46.738Z,1.23
2019-03-05T18:40:27.570Z,1.30
2019-03-05T18:43:08.410Z,0.83
2019-03-05T18:45:49.146Z,0.77
2019-03-05T18:48:29.525Z,0.60
2019-03-05T18:51:10.383Z,1.00
2019-03-05T18:53:51.110Z,1.40
2019-03-05T18:56:32.523Z,0.90
2019-03-05T18:59:13.798Z,0.80
2019-03-05T19:04:40.298Z,1.40
2019-03-05T19:07:21.090Z,1.10
2019-03-05T19:10:01.725Z,1.30
2019-03-05T19:12:42.741Z,1.20
2019-03-05T19:15:23.326Z,1.40
2019-03-05T19:18:04.010Z,1.20
2019-03-05T19:20:45.053Z,1.50
2019-03-05T19:23:25.889Z,1.50
2019-03-05T19:26:06.569Z,1.40
2019-03-05T19:28:47.070Z,1.97
2019-03-05T19:31:27.813Z,1.30
2019-03-05T19:34:08.721Z,1.50
2019-03-05T19:36:49.521Z,1.60
2019-03-05T19:39:30.186Z,1.80
2019-03-05T19:47:45.407Z,1.53
2019-03-05T19:50:24.591Z,1.70
2019-03-05T19:53:13.101Z,1.70
2019-03-05T19:56:01.538Z,1.63
2019-03-05T19:58:49.591Z,2.00
2019-03-05T20:01:36.988Z,1.47
2019-03-05T20:04:25.221Z,1.90
2019-03-05T20:07:13.359Z,1.60
2019-03-05T20:10:01.530Z,1.60
2019-03-05T20:12:42.526Z,2.37
2019-03-05T20:15:23.553Z,1.73
2019-03-05T20:18:03.951Z,1.83
2019-03-05T20:20:44.250Z,1.77
2019-03-05T20:23:24.894Z,1.50
2019-03-05T20:26:05.555Z,1.80
2019-03-05T20:28:46.313Z,2.03
2019-03-05T20:31:27.238Z,2.03
2019-03-05T20:34:07.946Z,2.20
2019-03-05T20:36:48.598Z,1.70
2019-03-05T20:39:29.366Z,1.70
2019-03-05T20:42:10.012Z,1.60
2019-03-05T20:44:50.908Z,2.00
2019-03-05T20:47:32.131Z,1.73
2019-03-05T20:50:13.301Z,1.60
2019-03-05T20:53:02.813Z,1.57
2019-03-05T20:55:50.926Z,1.10
2019-03-05T20:58:38.963Z,1.40
2019-03-05T21:01:27.082Z,1.43
2019-03-05T21:04:15.424Z,1.90
2019-03-05T21:07:03.772Z,1.90
2019-03-05T21:09:51.886Z,1.90
2019-03-05T21:12:33.086Z,1.80
2019-03-05T21:15:14.017Z,2.23
2019-03-05T21:17:54.950Z,2.03
2019-03-05T21:20:35.930Z,2.17
2019-03-05T21:23:16.438Z,1.77
2019-03-05T21:25:56.957Z,1.97
2019-03-05T21:31:19.702Z,2.00
2019-03-05T21:34:00.825Z,1.73
2019-03-05T21:36:41.425Z,2.27
2019-03-05T21:39:22.250Z,2.30
2019-03-05T21:42:03.006Z,2.53
2019-03-05T21:44:43.539Z,2.00
2019-03-05T21:47:24.182Z,2.20
2019-03-05T21:52:47.201Z,2.10
2019-03-05T21:55:27.882Z,2.43
2019-03-05T21:58:08.748Z,2.07
2019-03-05T22:00:49.491Z,2.17
2019-03-05T22:03:30.318Z,2.17
2019-03-05T22:06:10.836Z,2.10
2019-03-05T22:08:51.717Z,2.30
2019-03-05T22:11:32.373Z,1.93
2019-03-05T22:14:13.165Z,1.97
2019-03-05T22:16:53.535Z,2.10
2019-03-05T22:19:34.300Z,2.27
2019-03-05T22:22:15.052Z,2.10
2019-03-05T22:27:38.291Z,2.20
2019-03-05T22:30:19.126Z,2.13
2019-03-05T22:32:59.857Z,1.63
2019-03-05T22:35:40.601Z,1.70
2019-03-05T22:38:21.391Z,1.83
2019-03-05T22:41:02.083Z,2.00
2019-03-05T22:43:43.009Z,2.00
2019-03-05T22:46:23.413Z,2.10
2019-03-05T22:49:03.970Z,1.77
2019-03-05T22:51:44.645Z,1.90
2019-03-05T22:54:25.448Z,2.27
2019-03-05T22:57:06.122Z,2.10
2019-03-05T22:59:46.906Z,2.10
2019-03-05T23:02:28.214Z,2.20
2019-03-05T23:05:08.753Z,2.13
2019-03-05T23:07:49.509Z,2.17
2019-03-05T23:10:31.151Z,2.90
2019-03-05T23:13:12.023Z,2.40
2019-03-05T23:15:52.822Z,2.40
2019-03-05T23:18:33.605Z,2.30
2019-03-05T23:21:14.493Z,2.23
2019-03-05T23:23:55.232Z,1.90
2019-03-05T23:26:35.673Z,2.17
2019-03-05T23:29:16.429Z,2.03
2019-03-05T23:34:39.965Z,2.10
2019-03-05T23:40:03.169Z,1.90
2019-03-05T23:42:43.665Z,2.30
2019-03-05T23:45:24.543Z,2.30
2019-03-05T23:48:05.279Z,2.60
2019-03-05T23:50:46.127Z,2.20
2019-03-05T23:53:27.588Z,1.77
2019-03-05T23:56:08.294Z,1.97
2019-03-05T23:58:49.551Z,1.70
